createdAt,value
2017-08-15T00:00:20.937Z,78.10
2017-08-15T00:02:49.253Z,77.50
2017-08-15T00:05:17.888Z,78.10
2017-08-15T00:07:46.250Z,78.10
2017-08-15T00:10:14.540Z,77.90
2017-08-15T00:12:42.896Z,78.40
2017-08-15T00:15:11.251Z,78.20
2017-08-15T00:17:39.549Z,77.70
2017-08-15T00:20:07.851Z,77.50
2017-08-15T00:22:36.206Z,77.80
2017-08-15T00:25:04.531Z,77.90
2017-08-15T00:27:33.887Z,78.30
2017-08-15T00:30:02.467Z,78.70
2017-08-15T00:32:30.799Z,78.90
2017-08-15T00:34:59.119Z,78.80
2017-08-15T00:37:27.482Z,79.10
2017-08-15T00:39:55.775Z,79.30
2017-08-15T00:42:24.087Z,79.70
2017-08-15T00:44:52.473Z,80.00
2017-08-15T00:47:20.769Z,79.90
2017-08-15T00:49:49.844Z,80.50
2017-08-15T00:52:18.187Z,80.50
2017-08-15T00:54:47.239Z,80.50
2017-08-15T00:57:15.526Z,80.30
2017-08-15T00:59:43.968Z,80.60
2017-08-15T01:02:12.257Z,80.80
2017-08-15T01:04:40.549Z,80.50
2017-08-15T01:07:08.931Z,80.20
2017-08-15T01:09:37.242Z,80.40
2017-08-15T01:12:05.562Z,80.60
2017-08-15T01:14:33.937Z,80.80
2017-08-15T01:17:02.220Z,81.70
2017-08-15T01:19:31.317Z,81.90
2017-08-15T01:21:59.672Z,81.80
2017-08-15T01:24:27.987Z,81.70
2017-08-15T01:26:56.280Z,81.40
2017-08-15T01:29:24.678Z,81.70
2017-08-15T01:31:52.979Z,81.30
2017-08-15T01:34:21.285Z,81.60
2017-08-15T01:36:49.626Z,81.50
2017-08-15T01:39:17.981Z,81.50
2017-08-15T01:41:46.291Z,82.00
2017-08-15T01:44:14.660Z,82.10
2017-08-15T01:46:42.975Z,82.40
2017-08-15T01:49:13.287Z,82.50
2017-08-15T01:51:41.663Z,83.00
2017-08-15T01:54:09.999Z,82.50
2017-08-15T01:56:39.080Z,83.90
2017-08-15T01:59:07.376Z,83.00
2017-08-15T02:01:35.748Z,83.30
2017-08-15T02:04:04.167Z,83.70
2017-08-15T02:06:32.566Z,83.70
2017-08-15T02:09:00.932Z,83.30
2017-08-15T02:11:30.039Z,84.30
2017-08-15T02:13:58.355Z,83.50
2017-08-15T02:16:27.432Z,84.10
2017-08-15T02:18:55.727Z,84.10
2017-08-15T02:21:24.094Z,84.40
2017-08-15T02:23:53.167Z,84.70
2017-08-15T02:26:21.483Z,84.60
2017-08-15T02:28:49.780Z,84.70
2017-08-15T02:31:18.186Z,84.70
2017-08-15T02:33:46.509Z,85.00
2017-08-15T02:36:14.850Z,85.20
2017-08-15T02:38:43.164Z,85.20
2017-08-15T02:41:11.482Z,85.50
2017-08-15T02:43:39.863Z,85.80
2017-08-15T02:46:08.179Z,86.10
2017-08-15T02:48:36.475Z,86.40
2017-08-15T02:51:04.860Z,86.70
2017-08-15T02:53:33.928Z,86.80
2017-08-15T02:56:02.409Z,86.80
2017-08-15T02:58:30.796Z,86.20
2017-08-15T03:00:59.120Z,85.60
2017-08-15T03:03:27.423Z,85.30
2017-08-15T03:05:55.751Z,85.40
2017-08-15T03:08:24.100Z,85.80
2017-08-15T03:10:52.414Z,85.70
2017-08-15T03:13:20.712Z,85.90
2017-08-15T03:15:49.052Z,85.90
2017-08-15T03:18:17.347Z,86.30
2017-08-15T03:20:45.681Z,86.10
2017-08-15T03:23:13.966Z,86.00
2017-08-15T03:25:42.305Z,85.60
2017-08-15T03:28:10.634Z,85.90
2017-08-15T03:30:38.981Z,85.90
2017-08-15T03:33:07.342Z,85.90
2017-08-15T03:35:36.571Z,86.10
2017-08-15T03:38:04.971Z,86.30
2017-08-15T03:40:33.279Z,86.20
2017-08-15T03:43:01.587Z,86.30
2017-08-15T03:45:29.954Z,86.20
2017-08-15T03:47:59.004Z,86.60
2017-08-15T03:50:27.363Z,86.50
2017-08-15T03:52:55.643Z,86.80
2017-08-15T03:55:23.951Z,86.90
2017-08-15T03:57:52.272Z,87.40
2017-08-15T04:00:20.574Z,87.20
2017-08-15T04:02:49.665Z,86.90
2017-08-15T04:05:17.966Z,86.90
2017-08-15T04:07:46.281Z,86.80
2017-08-15T04:10:15.386Z,86.70
2017-08-15T04:12:43.697Z,86.70
2017-08-15T04:15:12.007Z,86.50
2017-08-15T04:17:40.359Z,86.70
2017-08-15T04:20:08.823Z,86.70
2017-08-15T04:22:37.137Z,86.60
2017-08-15T04:25:05.494Z,86.80
2017-08-15T04:27:33.819Z,87.20
2017-08-15T04:30:02.166Z,87.30
2017-08-15T04:32:30.458Z,87.30
2017-08-15T04:34:58.783Z,86.70
2017-08-15T04:37:27.120Z,86.60
2017-08-15T04:39:55.402Z,86.70
2017-08-15T04:42:23.699Z,86.80
2017-08-15T04:44:52.028Z,86.50
2017-08-15T04:47:20.334Z,86.30
2017-08-15T04:49:48.655Z,86.40
2017-08-15T04:52:16.994Z,86.20
2017-08-15T04:54:45.300Z,86.00
2017-08-15T04:57:13.589Z,86.10
2017-08-15T04:59:41.906Z,86.00
2017-08-15T05:02:10.195Z,86.00
2017-08-15T05:04:38.587Z,85.80
2017-08-15T05:07:06.896Z,85.80
2017-08-15T05:09:35.192Z,85.70
2017-08-15T05:12:03.512Z,85.90
2017-08-15T05:14:31.817Z,85.70
2017-08-15T05:17:00.166Z,85.50
2017-08-15T05:19:28.468Z,85.30
2017-08-15T05:21:56.774Z,85.20
2017-08-15T05:24:25.149Z,85.00
2017-08-15T05:26:53.492Z,85.10
2017-08-15T05:29:21.787Z,84.40
2017-08-15T05:31:50.138Z,83.80
2017-08-15T05:34:18.467Z,83.90
2017-08-15T05:36:47.576Z,83.40
2017-08-15T05:39:16.660Z,82.80
2017-08-15T05:41:49.433Z,82.20
2017-08-15T05:44:17.851Z,79.20
2017-08-15T05:46:46.148Z,77.00
2017-08-15T05:49:18.474Z,76.70
2017-08-15T05:51:46.795Z,76.60
2017-08-15T05:54:15.115Z,74.20
2017-08-15T05:56:44.350Z,74.70
2017-08-15T05:59:12.678Z,70.60
2017-08-15T06:01:41.024Z,60.70
2017-08-15T06:04:09.351Z,53.80
2017-08-15T06:06:37.701Z,49.60
2017-08-15T06:09:06.088Z,44.80
2017-08-15T06:11:34.397Z,40.50
2017-08-15T06:14:02.731Z,38.60
2017-08-15T06:16:31.077Z,36.80
2017-08-15T06:18:59.471Z,36.10
2017-08-15T06:21:27.834Z,35.80
2017-08-15T06:23:56.202Z,33.80
2017-08-15T06:26:24.551Z,33.10
2017-08-15T06:28:53.921Z,32.30
2017-08-15T06:31:22.294Z,31.00
2017-08-15T06:33:50.628Z,31.40
2017-08-15T06:36:19.014Z,30.60
2017-08-15T06:38:47.356Z,30.00
2017-08-15T06:41:15.670Z,29.90
2017-08-15T06:43:44.690Z,29.50
2017-08-15T06:46:13.045Z,29.90
2017-08-15T06:48:42.184Z,30.60
2017-08-15T06:51:10.519Z,29.90
2017-08-15T06:53:38.845Z,29.30
2017-08-15T06:56:07.180Z,28.70
2017-08-15T06:58:35.651Z,28.80
2017-08-15T07:01:03.984Z,28.90
2017-08-15T07:03:33.056Z,28.80
2017-08-15T07:06:01.453Z,28.80
2017-08-15T07:08:29.863Z,28.00
2017-08-15T07:10:58.183Z,27.20
2017-08-15T07:13:26.572Z,27.10
2017-08-15T07:15:54.871Z,27.30
2017-08-15T07:18:23.200Z,27.70
2017-08-15T07:20:51.560Z,28.00
2017-08-15T07:23:19.857Z,28.90
2017-08-15T07:25:48.156Z,28.30
2017-08-15T07:28:16.477Z,28.90
2017-08-15T07:30:44.773Z,28.70
2017-08-15T07:33:13.102Z,28.70
2017-08-15T07:35:41.433Z,27.90
2017-08-15T07:38:10.490Z,28.00
2017-08-15T07:40:38.776Z,27.60
2017-08-15T07:43:07.097Z,28.00
2017-08-15T07:45:35.409Z,27.80
2017-08-15T07:48:03.722Z,27.70
2017-08-15T07:50:32.052Z,27.90
2017-08-15T07:53:00.406Z,28.10
2017-08-15T07:55:28.705Z,27.20
2017-08-15T07:57:57.000Z,28.70
2017-08-15T08:00:26.107Z,28.90
2017-08-15T08:02:55.195Z,29.50
2017-08-15T08:05:23.535Z,28.90
2017-08-15T08:07:52.611Z,28.90
2017-08-15T08:10:21.005Z,28.90
2017-08-15T08:12:49.363Z,28.20
2017-08-15T08:15:18.424Z,29.80
2017-08-15T08:17:46.794Z,29.80
2017-08-15T08:20:15.151Z,31.10
2017-08-15T08:22:43.462Z,30.40
2017-08-15T08:25:11.810Z,29.00
2017-08-15T08:27:40.114Z,30.10
2017-08-15T08:30:08.410Z,30.20
2017-08-15T08:32:37.106Z,30.70
2017-08-15T08:35:06.193Z,30.70
2017-08-15T08:37:34.526Z,30.70
2017-08-15T08:40:03.589Z,30.90
2017-08-15T08:42:31.894Z,30.90
2017-08-15T08:45:00.236Z,30.00
2017-08-15T08:47:28.534Z,30.40
2017-08-15T08:49:56.841Z,31.90
2017-08-15T08:52:25.202Z,33.10
2017-08-15T08:54:53.553Z,34.10
2017-08-15T08:57:21.880Z,34.30
2017-08-15T08:59:50.960Z,34.70
2017-08-15T09:02:19.250Z,34.60
2017-08-15T09:04:47.649Z,33.80
2017-08-15T09:07:15.942Z,34.80
2017-08-15T09:09:44.274Z,35.50
2017-08-15T09:12:12.601Z,35.80
2017-08-15T09:14:41.670Z,37.00
2017-08-15T09:17:10.002Z,36.40
2017-08-15T09:19:38.337Z,35.80
2017-08-15T09:22:06.654Z,36.70
2017-08-15T09:24:35.745Z,37.10
2017-08-15T09:27:04.081Z,37.10
2017-08-15T09:29:38.768Z,36.20
2017-08-15T09:32:07.323Z,36.20
2017-08-15T09:34:35.690Z,35.90
2017-08-15T09:37:04.021Z,36.80
2017-08-15T09:39:32.317Z,36.00
2017-08-15T09:42:00.608Z,36.40
2017-08-15T09:44:29.019Z,35.30
2017-08-15T09:46:57.328Z,35.00
2017-08-15T09:49:25.654Z,35.50
2017-08-15T09:51:53.997Z,35.40
2017-08-15T09:54:22.297Z,36.80
2017-08-15T09:56:50.593Z,38.50
2017-08-15T09:59:18.945Z,39.00
2017-08-15T10:01:47.389Z,38.40
2017-08-15T10:04:15.769Z,38.70
2017-08-15T10:06:44.088Z,38.50
2017-08-15T10:09:12.414Z,37.60
2017-08-15T10:11:40.757Z,37.30
2017-08-15T10:14:09.077Z,38.90
2017-08-15T10:16:38.129Z,39.40
2017-08-15T10:19:06.483Z,39.30
2017-08-15T10:21:34.797Z,39.20
2017-08-15T10:24:03.223Z,39.70
2017-08-15T10:26:31.554Z,40.20
2017-08-15T10:28:59.844Z,39.50
2017-08-15T10:31:28.174Z,39.80
2017-08-15T10:33:56.498Z,40.00
2017-08-15T10:36:24.829Z,40.30
2017-08-15T10:38:53.141Z,40.60
2017-08-15T10:41:21.480Z,39.80
2017-08-15T10:43:49.805Z,39.20
2017-08-15T10:46:18.110Z,38.40
2017-08-15T10:48:46.459Z,39.00
2017-08-15T10:51:14.829Z,39.50
2017-08-15T10:53:43.186Z,39.20
2017-08-15T10:56:11.551Z,41.40
2017-08-15T10:58:40.640Z,42.70
2017-08-15T11:01:08.965Z,42.00
2017-08-15T11:03:37.309Z,41.70
2017-08-15T11:06:05.637Z,40.20
2017-08-15T11:08:33.966Z,39.80
2017-08-15T11:11:02.274Z,39.60
2017-08-15T11:13:30.588Z,38.70
2017-08-15T11:15:59.683Z,39.40
2017-08-15T11:18:28.010Z,39.40
2017-08-15T11:20:56.310Z,41.60
2017-08-15T11:23:24.657Z,39.70
2017-08-15T11:25:52.944Z,39.20
2017-08-15T11:28:21.236Z,38.50
2017-08-15T11:30:49.604Z,39.00
2017-08-15T11:33:17.909Z,38.30
2017-08-15T11:35:46.202Z,39.10
2017-08-15T11:38:14.585Z,40.50
2017-08-15T11:40:42.886Z,40.20
2017-08-15T11:43:11.219Z,41.10
2017-08-15T11:45:40.284Z,41.20
2017-08-15T11:48:08.633Z,41.50
2017-08-15T11:50:36.987Z,40.00
2017-08-15T11:53:05.292Z,39.40
2017-08-15T11:55:33.585Z,41.30
2017-08-15T11:58:01.926Z,39.40
2017-08-15T12:00:30.243Z,41.70
2017-08-15T12:02:59.341Z,42.30
2017-08-15T12:05:27.652Z,42.30
2017-08-15T12:07:55.953Z,42.90
2017-08-15T12:10:24.390Z,41.40
2017-08-15T12:12:52.721Z,41.80
2017-08-15T12:15:21.065Z,42.10
2017-08-15T12:17:49.410Z,43.20
2017-08-15T12:20:17.740Z,43.50
2017-08-15T12:22:46.072Z,43.70
2017-08-15T12:25:14.718Z,43.90
2017-08-15T12:27:43.813Z,44.30
2017-08-15T12:30:12.142Z,44.30
2017-08-15T12:32:41.217Z,46.50
2017-08-15T12:35:09.557Z,46.40
2017-08-15T12:37:38.620Z,46.10
2017-08-15T12:40:06.915Z,46.10
2017-08-15T12:42:35.246Z,46.00
2017-08-15T12:45:03.559Z,47.10
2017-08-15T12:47:31.898Z,47.50
2017-08-15T12:50:00.249Z,47.80
2017-08-15T12:52:28.551Z,48.80
2017-08-15T12:57:27.300Z,89.50
2017-08-15T12:59:55.627Z,89.30
2017-08-15T13:02:23.972Z,99.90
2017-08-15T13:04:52.296Z,99.90
